Bahla, Oman
Current Conditions -  °F | °C
As of 4:50 PM on Saturday 25 Oct 2014 (Local Time) from EQMN Reporting Station
Few Clouds Few Clouds  
Wind Chill: 88°   Ceiling: Unl
Heat Index: 91°   Visibility: 6mi
Dew Point: 68°   Wind: 7mph
Humidity: 52%   Direction: 90°E
Pressure: 29.83"   Gusts: NA
Location:  22.97°N, 57.3°E
Report Text: EQMN 251250Z 09006KT 9999 FEW050 31/20 Q1010 BLU NOSIG
Loading
Personal Weather Stations






























Interactive Weather Map
Tropical Storm Tracking
New forecast layout! Learn more

10-Day Weather Forecast

Advertisements
Track Severe Weather on mobile